sensor_id;sensor_type;location;lat;lon;timestamp;P1;durP1;ratioP1;P2;durP2;ratioP2
35223;SDS011;21367;51.930;8.112;2023-03-08T00:05:01;21.80;;;9.13;;
35223;SDS011;21367;51.930;8.112;2023-03-08T00:10:05;20.38;;;8.63;;
35223;SDS011;21367;51.930;8.112;2023-03-08T00:15:12;16.45;;;6.50;;
35223;SDS011;21367;51.930;8.112;2023-03-08T00:20:17;14.27;;;7.00;;
35223;SDS011;21367;51.930;8.112;2023-03-08T00:25:20;18.02;;;6.70;;
35223;SDS011;21367;51.930;8.112;2023-03-08T00:30:27;11.27;;;6.00;;
35223;SDS011;21367;51.930;8.112;2023-03-08T00:35:31;14.63;;;6.45;;
35223;SDS011;21367;51.930;8.112;2023-03-08T00:40:35;14.95;;;6.25;;
35223;SDS011;21367;51.930;8.112;2023-03-08T00:45:41;14.68;;;6.60;;
35223;SDS011;21367;51.930;8.112;2023-03-08T00:50:44;12.30;;;6.28;;
35223;SDS011;21367;51.930;8.112;2023-03-08T00:55:49;13.32;;;6.18;;
35223;SDS011;21367;51.930;8.112;2023-03-08T01:00:56;19.50;;;8.70;;
35223;SDS011;21367;51.930;8.112;2023-03-08T01:06:04;16.77;;;7.93;;
35223;SDS011;21367;51.930;8.112;2023-03-08T01:11:14;19.02;;;8.68;;
35223;SDS011;21367;51.930;8.112;2023-03-08T01:16:23;20.75;;;8.32;;
35223;SDS011;21367;51.930;8.112;2023-03-08T01:21:29;19.58;;;8.93;;
35223;SDS011;21367;51.930;8.112;2023-03-08T01:26:33;17.27;;;8.20;;
35223;SDS011;21367;51.930;8.112;2023-03-08T01:31:40;26.58;;;11.00;;
35223;SDS011;21367;51.930;8.112;2023-03-08T01:41:50;27.67;;;11.75;;
35223;SDS011;21367;51.930;8.112;2023-03-08T01:46:57;25.30;;;13.10;;
35223;SDS011;21367;51.930;8.112;2023-03-08T01:52:14;26.98;;;12.57;;
35223;SDS011;21367;51.930;8.112;2023-03-08T01:57:22;27.38;;;11.82;;
35223;SDS011;21367;51.930;8.112;2023-03-08T02:02:34;28.30;;;12.10;;
35223;SDS011;21367;51.930;8.112;2023-03-08T02:07:42;24.48;;;11.25;;
35223;SDS011;21367;51.930;8.112;2023-03-08T02:12:46;26.60;;;11.90;;
35223;SDS011;21367;51.930;8.112;2023-03-08T02:17:53;24.80;;;11.45;;
35223;SDS011;21367;51.930;8.112;2023-03-08T02:28:12;24.33;;;11.43;;
35223;SDS011;21367;51.930;8.112;2023-03-08T02:39:23;29.55;;;13.43;;
35223;SDS011;21367;51.930;8.112;2023-03-08T02:44:28;28.52;;;12.98;;
35223;SDS011;21367;51.930;8.112;2023-03-08T02:49:32;34.22;;;13.85;;
35223;SDS011;21367;51.930;8.112;2023-03-08T02:54:38;30.77;;;14.43;;
35223;SDS011;21367;51.930;8.112;2023-03-08T03:04:45;37.60;;;15.77;;
35223;SDS011;21367;51.930;8.112;2023-03-08T03:09:52;35.40;;;15.93;;
35223;SDS011;21367;51.930;8.112;2023-03-08T03:14:56;40.58;;;16.70;;
35223;SDS011;21367;51.930;8.112;2023-03-08T03:20:00;40.70;;;16.23;;
35223;SDS011;21367;51.930;8.112;2023-03-08T03:25:07;35.50;;;16.08;;
35223;SDS011;21367;51.930;8.112;2023-03-08T03:30:12;38.25;;;16.15;;
35223;SDS011;21367;51.930;8.112;2023-03-08T03:35:17;35.22;;;15.70;;
35223;SDS011;21367;51.930;8.112;2023-03-08T03:40:24;36.60;;;15.95;;
35223;SDS011;21367;51.930;8.112;2023-03-08T03:45:33;38.58;;;16.95;;
35223;SDS011;21367;51.930;8.112;2023-03-08T03:50:37;35.80;;;16.42;;
35223;SDS011;21367;51.930;8.112;2023-03-08T03:55:49;38.45;;;16.25;;
35223;SDS011;21367;51.930;8.112;2023-03-08T04:00:52;37.53;;;15.95;;
35223;SDS011;21367;51.930;8.112;2023-03-08T04:06:06;39.28;;;16.73;;
35223;SDS011;21367;51.930;8.112;2023-03-08T04:11:14;32.20;;;15.45;;
35223;SDS011;21367;51.930;8.112;2023-03-08T04:16:21;35.72;;;17.27;;
35223;SDS011;21367;51.930;8.112;2023-03-08T04:21:27;33.22;;;16.15;;
35223;SDS011;21367;51.930;8.112;2023-03-08T04:26:34;38.53;;;17.65;;
35223;SDS011;21367;51.930;8.112;2023-03-08T04:31:38;46.63;;;19.35;;
35223;SDS011;21367;51.930;8.112;2023-03-08T04:36:45;46.05;;;20.05;;
35223;SDS011;21367;51.930;8.112;2023-03-08T04:41:52;44.20;;;20.40;;
35223;SDS011;21367;51.930;8.112;2023-03-08T04:47:03;53.33;;;22.75;;
35223;SDS011;21367;51.930;8.112;2023-03-08T04:52:16;47.80;;;21.70;;
35223;SDS011;21367;51.930;8.112;2023-03-08T04:57:24;51.10;;;22.15;;
35223;SDS011;21367;51.930;8.112;2023-03-08T05:02:31;51.63;;;23.20;;
35223;SDS011;21367;51.930;8.112;2023-03-08T05:07:36;55.45;;;22.73;;
35223;SDS011;21367;51.930;8.112;2023-03-08T05:12:43;51.13;;;22.75;;
35223;SDS011;21367;51.930;8.112;2023-03-08T05:17:47;62.47;;;24.63;;
35223;SDS011;21367;51.930;8.112;2023-03-08T05:22:51;53.60;;;22.83;;
35223;SDS011;21367;51.930;8.112;2023-03-08T05:27:58;52.63;;;23.23;;
35223;SDS011;21367;51.930;8.112;2023-03-08T05:33:02;47.90;;;22.63;;
35223;SDS011;21367;51.930;8.112;2023-03-08T05:38:06;50.22;;;23.63;;
35223;SDS011;21367;51.930;8.112;2023-03-08T05:43:13;54.40;;;23.75;;
35223;SDS011;21367;51.930;8.112;2023-03-08T05:48:17;61.30;;;24.98;;
35223;SDS011;21367;51.930;8.112;2023-03-08T05:53:21;52.60;;;23.77;;
35223;SDS011;21367;51.930;8.112;2023-03-08T05:58:27;49.58;;;23.27;;
35223;SDS011;21367;51.930;8.112;2023-03-08T06:03:33;66.18;;;26.25;;
35223;SDS011;21367;51.930;8.112;2023-03-08T06:08:37;68.28;;;27.42;;
35223;SDS011;21367;51.930;8.112;2023-03-08T06:13:44;71.53;;;28.17;;
35223;SDS011;21367;51.930;8.112;2023-03-08T06:18:48;67.47;;;29.25;;
35223;SDS011;21367;51.930;8.112;2023-03-08T06:23:53;76.40;;;29.92;;
35223;SDS011;21367;51.930;8.112;2023-03-08T06:29:00;63.97;;;27.92;;
35223;SDS011;21367;51.930;8.112;2023-03-08T06:34:06;79.90;;;30.60;;
35223;SDS011;21367;51.930;8.112;2023-03-08T06:39:10;78.97;;;30.63;;
35223;SDS011;21367;51.930;8.112;2023-03-08T06:44:19;79.15;;;31.70;;
35223;SDS011;21367;51.930;8.112;2023-03-08T06:49:23;85.22;;;32.45;;
35223;SDS011;21367;51.930;8.112;2023-03-08T06:54:27;93.50;;;35.03;;
35223;SDS011;21367;51.930;8.112;2023-03-08T06:59:34;122.93;;;40.72;;
35223;SDS011;21367;51.930;8.112;2023-03-08T07:04:38;113.63;;;39.08;;
35223;SDS011;21367;51.930;8.112;2023-03-08T07:09:41;113.68;;;38.58;;
35223;SDS011;21367;51.930;8.112;2023-03-08T07:14:50;97.38;;;36.78;;
35223;SDS011;21367;51.930;8.112;2023-03-08T07:19:53;99.53;;;36.13;;
35223;SDS011;21367;51.930;8.112;2023-03-08T07:24:57;117.50;;;40.40;;
35223;SDS011;21367;51.930;8.112;2023-03-08T07:30:04;107.13;;;38.03;;
35223;SDS011;21367;51.930;8.112;2023-03-08T07:35:10;91.75;;;35.80;;
35223;SDS011;21367;51.930;8.112;2023-03-08T07:40:15;106.03;;;38.78;;
35223;SDS011;21367;51.930;8.112;2023-03-08T07:45:22;90.75;;;35.70;;
35223;SDS011;21367;51.930;8.112;2023-03-08T07:50:26;93.97;;;33.72;;
35223;SDS011;21367;51.930;8.112;2023-03-08T07:55:29;96.15;;;34.17;;
35223;SDS011;21367;51.930;8.112;2023-03-08T08:00:36;87.10;;;34.05;;
35223;SDS011;21367;51.930;8.112;2023-03-08T08:05:40;88.75;;;34.97;;
35223;SDS011;21367;51.930;8.112;2023-03-08T08:10:43;78.88;;;32.53;;
35223;SDS011;21367;51.930;8.112;2023-03-08T08:15:58;89.65;;;35.75;;
35223;SDS011;21367;51.930;8.112;2023-03-08T08:21:02;84.30;;;32.83;;
35223;SDS011;21367;51.930;8.112;2023-03-08T08:26:08;86.15;;;32.35;;
35223;SDS011;21367;51.930;8.112;2023-03-08T08:31:17;78.80;;;30.50;;
35223;SDS011;21367;51.930;8.112;2023-03-08T08:36:22;70.80;;;29.17;;
35223;SDS011;21367;51.930;8.112;2023-03-08T08:41:26;70.65;;;27.58;;
35223;SDS011;21367;51.930;8.112;2023-03-08T08:46:34;66.10;;;27.00;;
35223;SDS011;21367;51.930;8.112;2023-03-08T08:51:38;64.40;;;26.35;;
35223;SDS011;21367;51.930;8.112;2023-03-08T08:56:42;75.28;;;26.52;;
35223;SDS011;21367;51.930;8.112;2023-03-08T09:01:48;75.47;;;25.42;;
35223;SDS011;21367;51.930;8.112;2023-03-08T09:06:52;57.60;;;23.45;;
35223;SDS011;21367;51.930;8.112;2023-03-08T09:11:56;62.92;;;25.52;;
35223;SDS011;21367;51.930;8.112;2023-03-08T09:17:03;60.08;;;24.90;;
35223;SDS011;21367;51.930;8.112;2023-03-08T09:22:08;56.45;;;24.25;;
35223;SDS011;21367;51.930;8.112;2023-03-08T09:27:12;42.97;;;19.77;;
35223;SDS011;21367;51.930;8.112;2023-03-08T09:32:19;38.85;;;17.75;;
35223;SDS011;21367;51.930;8.112;2023-03-08T09:37:22;36.83;;;16.65;;
35223;SDS011;21367;51.930;8.112;2023-03-08T09:42:27;35.00;;;14.18;;
35223;SDS011;21367;51.930;8.112;2023-03-08T09:47:37;41.50;;;16.92;;
35223;SDS011;21367;51.930;8.112;2023-03-08T09:52:47;36.85;;;16.83;;
35223;SDS011;21367;51.930;8.112;2023-03-08T09:57:54;44.80;;;18.70;;
35223;SDS011;21367;51.930;8.112;2023-03-08T10:08:32;41.35;;;14.95;;
35223;SDS011;21367;51.930;8.112;2023-03-08T10:13:40;29.38;;;13.35;;
35223;SDS011;21367;51.930;8.112;2023-03-08T10:18:49;27.98;;;12.88;;
35223;SDS011;21367;51.930;8.112;2023-03-08T10:23:57;25.50;;;11.35;;
35223;SDS011;21367;51.930;8.112;2023-03-08T10:29:04;21.98;;;10.82;;
35223;SDS011;21367;51.930;8.112;2023-03-08T10:34:12;25.80;;;10.70;;
35223;SDS011;21367;51.930;8.112;2023-03-08T10:39:18;19.52;;;9.48;;
35223;SDS011;21367;51.930;8.112;2023-03-08T10:44:29;21.67;;;9.23;;
35223;SDS011;21367;51.930;8.112;2023-03-08T10:54:46;17.48;;;7.95;;
35223;SDS011;21367;51.930;8.112;2023-03-08T11:00:04;14.35;;;6.97;;
35223;SDS011;21367;51.930;8.112;2023-03-08T11:05:26;17.90;;;7.57;;
35223;SDS011;21367;51.930;8.112;2023-03-08T11:10:30;12.20;;;6.32;;
35223;SDS011;21367;51.930;8.112;2023-03-08T11:15:34;16.83;;;7.30;;
35223;SDS011;21367;51.930;8.112;2023-03-08T11:20:43;18.75;;;7.70;;
35223;SDS011;21367;51.930;8.112;2023-03-08T11:25:54;14.40;;;6.68;;
35223;SDS011;21367;51.930;8.112;2023-03-08T11:31:10;18.85;;;7.65;;
35223;SDS011;21367;51.930;8.112;2023-03-08T11:36:22;19.70;;;8.50;;
35223;SDS011;21367;51.930;8.112;2023-03-08T11:41:32;16.33;;;8.18;;
35223;SDS011;21367;51.930;8.112;2023-03-08T11:46:49;17.73;;;8.13;;
35223;SDS011;21367;51.930;8.112;2023-03-08T11:52:06;15.57;;;7.10;;
35223;SDS011;21367;51.930;8.112;2023-03-08T11:57:19;12.73;;;5.63;;
35223;SDS011;21367;51.930;8.112;2023-03-08T12:02:25;8.85;;;4.82;;
35223;SDS011;21367;51.930;8.112;2023-03-08T12:07:37;15.45;;;5.55;;
35223;SDS011;21367;51.930;8.112;2023-03-08T12:12:44;12.75;;;5.30;;
35223;SDS011;21367;51.930;8.112;2023-03-08T12:17:52;11.13;;;4.60;;
35223;SDS011;21367;51.930;8.112;2023-03-08T12:23:03;11.60;;;4.57;;
35223;SDS011;21367;51.930;8.112;2023-03-08T12:28:22;13.05;;;4.95;;
35223;SDS011;21367;51.930;8.112;2023-03-08T12:33:29;11.25;;;4.90;;
35223;SDS011;21367;51.930;8.112;2023-03-08T12:38:37;12.40;;;5.70;;
35223;SDS011;21367;51.930;8.112;2023-03-08T12:43:45;9.68;;;4.68;;
35223;SDS011;21367;51.930;8.112;2023-03-08T12:48:48;8.82;;;3.95;;
35223;SDS011;21367;51.930;8.112;2023-03-08T12:54:00;7.90;;;3.90;;
35223;SDS011;21367;51.930;8.112;2023-03-08T13:04:32;7.15;;;3.83;;
35223;SDS011;21367;51.930;8.112;2023-03-08T13:09:43;11.38;;;4.40;;
35223;SDS011;21367;51.930;8.112;2023-03-08T13:15:05;10.75;;;4.30;;
35223;SDS011;21367;51.930;8.112;2023-03-08T13:20:22;8.95;;;4.63;;
35223;SDS011;21367;51.930;8.112;2023-03-08T13:31:18;9.88;;;4.65;;
35223;SDS011;21367;51.930;8.112;2023-03-08T13:36:24;6.97;;;3.65;;
35223;SDS011;21367;51.930;8.112;2023-03-08T13:41:32;9.40;;;4.88;;
35223;SDS011;21367;51.930;8.112;2023-03-08T13:46:37;8.70;;;3.95;;
35223;SDS011;21367;51.930;8.112;2023-03-08T13:51:42;9.07;;;3.35;;
35223;SDS011;21367;51.930;8.112;2023-03-08T13:56:54;5.45;;;3.03;;
35223;SDS011;21367;51.930;8.112;2023-03-08T14:01:59;8.82;;;3.33;;
35223;SDS011;21367;51.930;8.112;2023-03-08T14:07:03;5.32;;;2.97;;
35223;SDS011;21367;51.930;8.112;2023-03-08T14:12:11;6.18;;;2.67;;
35223;SDS011;21367;51.930;8.112;2023-03-08T14:17:19;5.68;;;2.65;;
35223;SDS011;21367;51.930;8.112;2023-03-08T14:22:24;8.90;;;3.07;;
35223;SDS011;21367;51.930;8.112;2023-03-08T14:27:35;4.32;;;2.50;;
35223;SDS011;21367;51.930;8.112;2023-03-08T14:32:40;7.05;;;3.53;;
35223;SDS011;21367;51.930;8.112;2023-03-08T14:37:58;9.60;;;3.22;;
35223;SDS011;21367;51.930;8.112;2023-03-08T14:43:11;6.87;;;3.33;;
35223;SDS011;21367;51.930;8.112;2023-03-08T14:48:21;11.30;;;3.53;;
35223;SDS011;21367;51.930;8.112;2023-03-08T14:53:30;10.57;;;3.30;;
35223;SDS011;21367;51.930;8.112;2023-03-08T14:58:39;12.40;;;5.00;;
35223;SDS011;21367;51.930;8.112;2023-03-08T15:03:44;9.38;;;3.88;;
35223;SDS011;21367;51.930;8.112;2023-03-08T15:08:48;12.05;;;4.78;;
35223;SDS011;21367;51.930;8.112;2023-03-08T15:13:54;10.98;;;5.15;;
35223;SDS011;21367;51.930;8.112;2023-03-08T15:18:58;8.95;;;4.50;;
35223;SDS011;21367;51.930;8.112;2023-03-08T15:24:02;8.60;;;4.15;;
35223;SDS011;21367;51.930;8.112;2023-03-08T15:29:11;9.65;;;4.07;;
35223;SDS011;21367;51.930;8.112;2023-03-08T15:34:25;9.18;;;4.57;;
35223;SDS011;21367;51.930;8.112;2023-03-08T15:39:29;8.82;;;4.35;;
35223;SDS011;21367;51.930;8.112;2023-03-08T15:44:36;10.63;;;4.55;;
35223;SDS011;21367;51.930;8.112;2023-03-08T15:49:39;13.98;;;5.80;;
35223;SDS011;21367;51.930;8.112;2023-03-08T15:54:43;11.48;;;5.43;;
35223;SDS011;21367;51.930;8.112;2023-03-08T15:59:49;11.65;;;5.35;;
35223;SDS011;21367;51.930;8.112;2023-03-08T16:04:53;10.07;;;4.70;;
35223;SDS011;21367;51.930;8.112;2023-03-08T16:09:57;10.98;;;5.30;;
35223;SDS011;21367;51.930;8.112;2023-03-08T16:15:04;9.18;;;5.07;;
35223;SDS011;21367;51.930;8.112;2023-03-08T16:20:10;11.30;;;5.55;;
35223;SDS011;21367;51.930;8.112;2023-03-08T16:25:15;11.68;;;5.63;;
35223;SDS011;21367;51.930;8.112;2023-03-08T16:30:22;13.60;;;7.07;;
35223;SDS011;21367;51.930;8.112;2023-03-08T16:35:26;11.25;;;6.15;;
35223;SDS011;21367;51.930;8.112;2023-03-08T16:40:29;14.35;;;6.78;;
35223;SDS011;21367;51.930;8.112;2023-03-08T16:45:36;23.17;;;7.10;;
35223;SDS011;21367;51.930;8.112;2023-03-08T16:50:40;15.95;;;7.40;;
35223;SDS011;21367;51.930;8.112;2023-03-08T16:55:43;14.90;;;7.95;;
35223;SDS011;21367;51.930;8.112;2023-03-08T17:00:54;18.77;;;8.70;;
35223;SDS011;21367;51.930;8.112;2023-03-08T17:05:57;24.92;;;7.90;;
35223;SDS011;21367;51.930;8.112;2023-03-08T17:11:01;14.98;;;6.95;;
35223;SDS011;21367;51.930;8.112;2023-03-08T17:16:10;20.83;;;8.85;;
35223;SDS011;21367;51.930;8.112;2023-03-08T17:21:14;29.40;;;11.57;;
35223;SDS011;21367;51.930;8.112;2023-03-08T17:26:19;28.15;;;10.45;;
35223;SDS011;21367;51.930;8.112;2023-03-08T17:31:27;18.13;;;8.05;;
35223;SDS011;21367;51.930;8.112;2023-03-08T17:36:31;14.38;;;6.53;;
35223;SDS011;21367;51.930;8.112;2023-03-08T17:41:35;16.80;;;7.13;;
35223;SDS011;21367;51.930;8.112;2023-03-08T17:46:42;24.98;;;8.38;;
35223;SDS011;21367;51.930;8.112;2023-03-08T17:56:51;19.02;;;8.77;;
35223;SDS011;21367;51.930;8.112;2023-03-08T18:01:57;20.63;;;9.80;;
35223;SDS011;21367;51.930;8.112;2023-03-08T18:07:01;21.27;;;9.23;;
35223;SDS011;21367;51.930;8.112;2023-03-08T18:12:05;19.70;;;9.18;;
35223;SDS011;21367;51.930;8.112;2023-03-08T18:17:13;21.13;;;9.90;;
35223;SDS011;21367;51.930;8.112;2023-03-08T18:22:17;17.23;;;9.45;;
35223;SDS011;21367;51.930;8.112;2023-03-08T18:27:21;21.63;;;9.82;;
35223;SDS011;21367;51.930;8.112;2023-03-08T18:32:27;21.90;;;10.52;;
35223;SDS011;21367;51.930;8.112;2023-03-08T18:37:31;27.42;;;11.27;;
35223;SDS011;21367;51.930;8.112;2023-03-08T18:42:35;22.75;;;11.82;;
35223;SDS011;21367;51.930;8.112;2023-03-08T18:47:42;24.98;;;12.10;;
35223;SDS011;21367;51.930;8.112;2023-03-08T18:52:45;26.42;;;11.93;;
35223;SDS011;21367;51.930;8.112;2023-03-08T18:57:49;29.17;;;12.82;;
35223;SDS011;21367;51.930;8.112;2023-03-08T19:02:56;30.27;;;13.88;;
35223;SDS011;21367;51.930;8.112;2023-03-08T19:08:06;31.58;;;14.10;;
35223;SDS011;21367;51.930;8.112;2023-03-08T19:13:10;37.80;;;15.63;;
35223;SDS011;21367;51.930;8.112;2023-03-08T19:18:17;36.75;;;14.38;;
35223;SDS011;21367;51.930;8.112;2023-03-08T19:23:22;35.28;;;15.50;;
35223;SDS011;21367;51.930;8.112;2023-03-08T19:28:26;33.08;;;15.70;;
35223;SDS011;21367;51.930;8.112;2023-03-08T19:33:32;31.88;;;14.93;;
35223;SDS011;21367;51.930;8.112;2023-03-08T19:43:40;32.85;;;15.05;;
35223;SDS011;21367;51.930;8.112;2023-03-08T19:48:46;32.67;;;15.63;;
35223;SDS011;21367;51.930;8.112;2023-03-08T19:53:51;37.63;;;16.50;;
35223;SDS011;21367;51.930;8.112;2023-03-08T19:58:56;38.08;;;16.63;;
35223;SDS011;21367;51.930;8.112;2023-03-08T20:04:03;41.85;;;17.02;;
35223;SDS011;21367;51.930;8.112;2023-03-08T20:09:08;36.83;;;16.38;;
35223;SDS011;21367;51.930;8.112;2023-03-08T20:14:13;34.10;;;16.05;;
35223;SDS011;21367;51.930;8.112;2023-03-08T20:19:20;36.40;;;15.77;;
35223;SDS011;21367;51.930;8.112;2023-03-08T20:24:24;39.17;;;16.27;;
35223;SDS011;21367;51.930;8.112;2023-03-08T20:29:27;35.60;;;16.30;;
35223;SDS011;21367;51.930;8.112;2023-03-08T20:34:34;38.08;;;14.48;;
35223;SDS011;21367;51.930;8.112;2023-03-08T20:39:38;35.10;;;16.00;;
35223;SDS011;21367;51.930;8.112;2023-03-08T20:44:42;35.90;;;16.48;;
35223;SDS011;21367;51.930;8.112;2023-03-08T20:49:48;40.38;;;17.95;;
35223;SDS011;21367;51.930;8.112;2023-03-08T20:59:56;43.65;;;19.08;;
35223;SDS011;21367;51.930;8.112;2023-03-08T21:05:02;44.95;;;18.90;;
35223;SDS011;21367;51.930;8.112;2023-03-08T21:10:07;48.72;;;20.50;;
35223;SDS011;21367;51.930;8.112;2023-03-08T21:15:12;49.97;;;20.77;;
35223;SDS011;21367;51.930;8.112;2023-03-08T21:20:20;47.65;;;20.10;;
35223;SDS011;21367;51.930;8.112;2023-03-08T21:25:24;48.42;;;20.52;;
35223;SDS011;21367;51.930;8.112;2023-03-08T21:30:28;53.30;;;21.17;;
35223;SDS011;21367;51.930;8.112;2023-03-08T21:35:38;52.40;;;21.42;;
35223;SDS011;21367;51.930;8.112;2023-03-08T21:40:43;52.47;;;21.50;;
35223;SDS011;21367;51.930;8.112;2023-03-08T21:45:47;55.33;;;23.92;;
35223;SDS011;21367;51.930;8.112;2023-03-08T21:50:53;56.75;;;24.95;;
35223;SDS011;21367;51.930;8.112;2023-03-08T22:01:00;65.78;;;26.27;;
35223;SDS011;21367;51.930;8.112;2023-03-08T22:06:07;61.67;;;24.92;;
35223;SDS011;21367;51.930;8.112;2023-03-08T22:11:11;63.08;;;26.25;;
35223;SDS011;21367;51.930;8.112;2023-03-08T22:16:15;63.95;;;25.83;;
35223;SDS011;21367;51.930;8.112;2023-03-08T22:21:22;68.55;;;27.48;;
35223;SDS011;21367;51.930;8.112;2023-03-08T22:26:26;73.35;;;27.40;;
35223;SDS011;21367;51.930;8.112;2023-03-08T22:31:31;70.13;;;27.60;;
35223;SDS011;21367;51.930;8.112;2023-03-08T22:36:37;62.92;;;25.70;;
35223;SDS011;21367;51.930;8.112;2023-03-08T22:41:41;64.43;;;26.45;;
35223;SDS011;21367;51.930;8.112;2023-03-08T22:46:44;69.75;;;27.00;;
35223;SDS011;21367;51.930;8.112;2023-03-08T22:51:51;65.65;;;26.45;;
35223;SDS011;21367;51.930;8.112;2023-03-08T22:56:55;66.93;;;26.48;;
35223;SDS011;21367;51.930;8.112;2023-03-08T23:01:58;68.25;;;26.70;;
35223;SDS011;21367;51.930;8.112;2023-03-08T23:07:05;64.53;;;26.05;;
35223;SDS011;21367;51.930;8.112;2023-03-08T23:12:09;67.50;;;27.73;;
35223;SDS011;21367;51.930;8.112;2023-03-08T23:17:13;69.82;;;27.55;;
35223;SDS011;21367;51.930;8.112;2023-03-08T23:22:19;65.30;;;25.88;;
35223;SDS011;21367;51.930;8.112;2023-03-08T23:27:23;68.85;;;26.55;;
35223;SDS011;21367;51.930;8.112;2023-03-08T23:32:27;65.70;;;26.00;;
35223;SDS011;21367;51.930;8.112;2023-03-08T23:37:33;62.58;;;25.42;;
35223;SDS011;21367;51.930;8.112;2023-03-08T23:42:38;68.32;;;26.73;;
35223;SDS011;21367;51.930;8.112;2023-03-08T23:47:43;65.43;;;25.38;;
35223;SDS011;21367;51.930;8.112;2023-03-08T23:52:49;63.13;;;26.08;;
35223;SDS011;21367;51.930;8.112;2023-03-08T23:57:53;61.10;;;23.77;;
